sensor_id;sensor_type;location;lat;lon;timestamp;temperature;humidity
21312;DHT22;18076;52.154;10.570;2022-09-17T00:00:38;11.60;99.90
21312;DHT22;18076;52.154;10.570;2022-09-17T00:03:05;11.60;99.90
21312;DHT22;18076;52.154;10.570;2022-09-17T00:05:30;11.60;99.90
21312;DHT22;18076;52.154;10.570;2022-09-17T00:07:56;11.70;99.90
21312;DHT22;18076;52.154;10.570;2022-09-17T00:10:22;11.70;99.90
21312;DHT22;18076;52.154;10.570;2022-09-17T00:12:49;11.70;99.90
21312;DHT22;18076;52.154;10.570;2022-09-17T00:15:15;11.80;99.90
21312;DHT22;18076;52.154;10.570;2022-09-17T00:17:41;11.80;99.90
21312;DHT22;18076;52.154;10.570;2022-09-17T00:20:07;11.80;99.90
21312;DHT22;18076;52.154;10.570;2022-09-17T00:22:36;11.80;99.90
21312;DHT22;18076;52.154;10.570;2022-09-17T00:25:03;11.80;99.90
21312;DHT22;18076;52.154;10.570;2022-09-17T00:27:28;11.90;99.90
21312;DHT22;18076;52.154;10.570;2022-09-17T00:29:54;11.80;99.90
21312;DHT22;18076;52.154;10.570;2022-09-17T00:32:20;11.90;99.90
21312;DHT22;18076;52.154;10.570;2022-09-17T00:34:45;11.80;99.90
21312;DHT22;18076;52.154;10.570;2022-09-17T00:37:13;11.90;99.90
21312;DHT22;18076;52.154;10.570;2022-09-17T00:39:39;11.90;99.90
21312;DHT22;18076;52.154;10.570;2022-09-17T00:42:05;11.80;99.90
21312;DHT22;18076;52.154;10.570;2022-09-17T00:44:41;11.80;99.90
21312;DHT22;18076;52.154;10.570;2022-09-17T00:47:27;11.80;99.90
21312;DHT22;18076;52.154;10.570;2022-09-17T00:50:00;11.90;99.90
21312;DHT22;18076;52.154;10.570;2022-09-17T00:52:28;11.80;99.90
21312;DHT22;18076;52.154;10.570;2022-09-17T00:57:50;11.90;99.90
21312;DHT22;18076;52.154;10.570;2022-09-17T01:00:16;11.90;99.90
21312;DHT22;18076;52.154;10.570;2022-09-17T01:02:42;11.80;99.90
21312;DHT22;18076;52.154;10.570;2022-09-17T01:05:08;11.80;99.90
21312;DHT22;18076;52.154;10.570;2022-09-17T01:13:25;11.80;99.90
21312;DHT22;18076;52.154;10.570;2022-09-17T01:15:57;11.90;99.90
21312;DHT22;18076;52.154;10.570;2022-09-17T01:21:10;11.90;99.90
21312;DHT22;18076;52.154;10.570;2022-09-17T01:41:52;11.90;99.90
21312;DHT22;18076;52.154;10.570;2022-09-17T01:44:21;12.00;99.90
21312;DHT22;18076;52.154;10.570;2022-09-17T01:46:49;12.00;99.90
21312;DHT22;18076;52.154;10.570;2022-09-17T01:49:15;12.00;99.90
21312;DHT22;18076;52.154;10.570;2022-09-17T01:51:43;12.00;99.90
21312;DHT22;18076;52.154;10.570;2022-09-17T01:54:15;12.00;99.90
21312;DHT22;18076;52.154;10.570;2022-09-17T01:56:54;12.00;99.90
21312;DHT22;18076;52.154;10.570;2022-09-17T01:59:26;12.00;99.90
21312;DHT22;18076;52.154;10.570;2022-09-17T02:01:55;12.00;99.90
21312;DHT22;18076;52.154;10.570;2022-09-17T02:04:27;12.00;99.90
21312;DHT22;18076;52.154;10.570;2022-09-17T02:06:56;11.90;99.90
21312;DHT22;18076;52.154;10.570;2022-09-17T02:09:26;12.00;99.90
21312;DHT22;18076;52.154;10.570;2022-09-17T02:11:54;11.90;99.90
21312;DHT22;18076;52.154;10.570;2022-09-17T02:14:27;12.00;99.90
21312;DHT22;18076;52.154;10.570;2022-09-17T02:16:56;12.00;99.90
21312;DHT22;18076;52.154;10.570;2022-09-17T02:19:29;12.00;99.90
21312;DHT22;18076;52.154;10.570;2022-09-17T02:21:59;12.00;99.90
21312;DHT22;18076;52.154;10.570;2022-09-17T02:27:51;12.00;99.90
21312;DHT22;18076;52.154;10.570;2022-09-17T02:29:56;11.90;99.90
21312;DHT22;18076;52.154;10.570;2022-09-17T02:32:22;11.90;99.90
21312;DHT22;18076;52.154;10.570;2022-09-17T02:34:49;11.90;99.90
21312;DHT22;18076;52.154;10.570;2022-09-17T02:37:14;11.80;99.90
21312;DHT22;18076;52.154;10.570;2022-09-17T02:39:40;11.80;99.90
21312;DHT22;18076;52.154;10.570;2022-09-17T02:55:06;11.80;99.90
21312;DHT22;18076;52.154;10.570;2022-09-17T02:57:37;11.80;99.90
21312;DHT22;18076;52.154;10.570;2022-09-17T03:00:15;11.80;99.90
21312;DHT22;18076;52.154;10.570;2022-09-17T03:05:07;11.70;99.90
21312;DHT22;18076;52.154;10.570;2022-09-17T03:07:33;11.80;99.90
21312;DHT22;18076;52.154;10.570;2022-09-17T03:09:59;11.70;99.90
21312;DHT22;18076;52.154;10.570;2022-09-17T03:12:25;11.70;99.90
21312;DHT22;18076;52.154;10.570;2022-09-17T03:14:51;11.60;99.90
21312;DHT22;18076;52.154;10.570;2022-09-17T03:17:16;11.60;99.90
21312;DHT22;18076;52.154;10.570;2022-09-17T03:19:42;11.60;99.90
21312;DHT22;18076;52.154;10.570;2022-09-17T03:22:08;11.60;99.90
21312;DHT22;18076;52.154;10.570;2022-09-17T03:24:34;11.60;99.90
21312;DHT22;18076;52.154;10.570;2022-09-17T03:26:59;11.60;99.90
21312;DHT22;18076;52.154;10.570;2022-09-17T03:29:25;11.60;99.90
21312;DHT22;18076;52.154;10.570;2022-09-17T03:31:50;11.60;99.90
21312;DHT22;18076;52.154;10.570;2022-09-17T03:34:16;11.60;99.90
21312;DHT22;18076;52.154;10.570;2022-09-17T03:36:42;11.60;99.90
21312;DHT22;18076;52.154;10.570;2022-09-17T03:39:07;11.60;99.90
21312;DHT22;18076;52.154;10.570;2022-09-17T03:41:33;11.70;99.90
21312;DHT22;18076;52.154;10.570;2022-09-17T03:43:59;11.60;99.90
21312;DHT22;18076;52.154;10.570;2022-09-17T03:46:24;11.60;99.90
21312;DHT22;18076;52.154;10.570;2022-09-17T03:48:50;11.60;99.90
21312;DHT22;18076;52.154;10.570;2022-09-17T03:51:15;11.60;99.90
21312;DHT22;18076;52.154;10.570;2022-09-17T03:53:41;11.60;99.90
21312;DHT22;18076;52.154;10.570;2022-09-17T03:56:06;11.60;99.90
21312;DHT22;18076;52.154;10.570;2022-09-17T03:58:32;11.50;99.90
21312;DHT22;18076;52.154;10.570;2022-09-17T04:00:58;11.50;99.90
21312;DHT22;18076;52.154;10.570;2022-09-17T04:03:24;11.50;99.90
21312;DHT22;18076;52.154;10.570;2022-09-17T04:05:50;11.50;99.90
21312;DHT22;18076;52.154;10.570;2022-09-17T04:08:16;11.50;99.90
21312;DHT22;18076;52.154;10.570;2022-09-17T04:10:42;11.50;99.90
21312;DHT22;18076;52.154;10.570;2022-09-17T04:13:08;11.40;99.90
21312;DHT22;18076;52.154;10.570;2022-09-17T04:15:33;11.40;99.90
21312;DHT22;18076;52.154;10.570;2022-09-17T04:17:59;11.40;99.90
21312;DHT22;18076;52.154;10.570;2022-09-17T04:20:24;11.40;99.90
21312;DHT22;18076;52.154;10.570;2022-09-17T04:22:50;11.40;99.90
21312;DHT22;18076;52.154;10.570;2022-09-17T04:25:16;11.40;99.90
21312;DHT22;18076;52.154;10.570;2022-09-17T04:27:42;11.40;99.90
21312;DHT22;18076;52.154;10.570;2022-09-17T04:30:08;11.30;99.90
21312;DHT22;18076;52.154;10.570;2022-09-17T04:32:34;11.30;99.90
21312;DHT22;18076;52.154;10.570;2022-09-17T04:34:59;11.30;99.90
21312;DHT22;18076;52.154;10.570;2022-09-17T04:37:25;11.30;99.90
21312;DHT22;18076;52.154;10.570;2022-09-17T04:39:51;11.30;99.90
21312;DHT22;18076;52.154;10.570;2022-09-17T04:42:17;11.30;99.90
21312;DHT22;18076;52.154;10.570;2022-09-17T04:44:42;11.30;99.90
21312;DHT22;18076;52.154;10.570;2022-09-17T04:47:08;11.30;99.90
21312;DHT22;18076;52.154;10.570;2022-09-17T04:49:33;11.30;99.90
21312;DHT22;18076;52.154;10.570;2022-09-17T04:51:59;11.30;99.90
21312;DHT22;18076;52.154;10.570;2022-09-17T04:54:25;11.30;99.90
21312;DHT22;18076;52.154;10.570;2022-09-17T04:56:50;11.30;99.90
21312;DHT22;18076;52.154;10.570;2022-09-17T04:59:16;11.30;99.90
21312;DHT22;18076;52.154;10.570;2022-09-17T05:01:41;11.20;99.90
21312;DHT22;18076;52.154;10.570;2022-09-17T05:04:08;11.20;99.90
21312;DHT22;18076;52.154;10.570;2022-09-17T05:06:33;11.20;99.90
21312;DHT22;18076;52.154;10.570;2022-09-17T05:08:59;11.20;99.90
21312;DHT22;18076;52.154;10.570;2022-09-17T05:11:24;11.20;99.90
21312;DHT22;18076;52.154;10.570;2022-09-17T05:13:50;11.20;99.90
21312;DHT22;18076;52.154;10.570;2022-09-17T05:16:16;11.10;99.90
21312;DHT22;18076;52.154;10.570;2022-09-17T05:18:41;11.10;99.90
21312;DHT22;18076;52.154;10.570;2022-09-17T05:21:07;11.20;99.90
21312;DHT22;18076;52.154;10.570;2022-09-17T05:23:33;11.20;99.90
21312;DHT22;18076;52.154;10.570;2022-09-17T05:25:58;11.10;99.90
21312;DHT22;18076;52.154;10.570;2022-09-17T05:28:25;11.20;99.90
21312;DHT22;18076;52.154;10.570;2022-09-17T05:30:50;11.20;99.90
21312;DHT22;18076;52.154;10.570;2022-09-17T05:33:16;11.20;99.90
21312;DHT22;18076;52.154;10.570;2022-09-17T05:35:41;11.20;99.90
21312;DHT22;18076;52.154;10.570;2022-09-17T05:38:09;11.30;99.90
21312;DHT22;18076;52.154;10.570;2022-09-17T05:40:34;11.30;99.90
21312;DHT22;18076;52.154;10.570;2022-09-17T05:43:02;11.30;99.90
21312;DHT22;18076;52.154;10.570;2022-09-17T05:45:28;11.30;99.90
21312;DHT22;18076;52.154;10.570;2022-09-17T05:47:57;11.40;99.90
21312;DHT22;18076;52.154;10.570;2022-09-17T05:50:23;11.40;99.90
21312;DHT22;18076;52.154;10.570;2022-09-17T05:52:49;11.40;99.90
21312;DHT22;18076;52.154;10.570;2022-09-17T05:55:15;11.30;99.90
21312;DHT22;18076;52.154;10.570;2022-09-17T05:57:40;11.20;99.90
21312;DHT22;18076;52.154;10.570;2022-09-17T06:00:06;11.20;99.90
21312;DHT22;18076;52.154;10.570;2022-09-17T06:02:31;11.20;99.90
21312;DHT22;18076;52.154;10.570;2022-09-17T06:04:57;11.20;99.90
21312;DHT22;18076;52.154;10.570;2022-09-17T06:07:26;11.10;99.90
21312;DHT22;18076;52.154;10.570;2022-09-17T06:09:51;11.10;99.90
21312;DHT22;18076;52.154;10.570;2022-09-17T06:12:17;11.20;99.90
21312;DHT22;18076;52.154;10.570;2022-09-17T06:14:43;11.20;99.90
21312;DHT22;18076;52.154;10.570;2022-09-17T06:17:08;11.20;99.90
21312;DHT22;18076;52.154;10.570;2022-09-17T06:19:34;11.30;99.90
21312;DHT22;18076;52.154;10.570;2022-09-17T06:21:59;11.40;99.90
21312;DHT22;18076;52.154;10.570;2022-09-17T06:24:26;11.50;99.90
21312;DHT22;18076;52.154;10.570;2022-09-17T06:26:52;11.40;99.90
21312;DHT22;18076;52.154;10.570;2022-09-17T06:29:18;11.50;99.90
21312;DHT22;18076;52.154;10.570;2022-09-17T06:31:44;11.40;99.90
21312;DHT22;18076;52.154;10.570;2022-09-17T06:34:09;11.50;99.90
21312;DHT22;18076;52.154;10.570;2022-09-17T06:36:35;11.50;99.90
21312;DHT22;18076;52.154;10.570;2022-09-17T06:39:01;11.60;99.90
21312;DHT22;18076;52.154;10.570;2022-09-17T06:41:26;11.80;99.90
21312;DHT22;18076;52.154;10.570;2022-09-17T06:43:52;11.90;99.90
21312;DHT22;18076;52.154;10.570;2022-09-17T06:46:20;12.00;99.90
21312;DHT22;18076;52.154;10.570;2022-09-17T06:48:46;11.90;99.90
21312;DHT22;18076;52.154;10.570;2022-09-17T06:51:11;12.00;99.90
21312;DHT22;18076;52.154;10.570;2022-09-17T06:53:38;12.00;99.90
21312;DHT22;18076;52.154;10.570;2022-09-17T06:56:04;12.00;99.90
21312;DHT22;18076;52.154;10.570;2022-09-17T06:58:30;12.00;99.90
21312;DHT22;18076;52.154;10.570;2022-09-17T07:00:59;11.90;99.90
21312;DHT22;18076;52.154;10.570;2022-09-17T07:03:26;11.90;99.90
21312;DHT22;18076;52.154;10.570;2022-09-17T07:05:51;12.00;99.90
21312;DHT22;18076;52.154;10.570;2022-09-17T07:08:17;12.10;99.90
21312;DHT22;18076;52.154;10.570;2022-09-17T07:10:42;12.20;99.90
21312;DHT22;18076;52.154;10.570;2022-09-17T07:13:08;12.30;99.90
21312;DHT22;18076;52.154;10.570;2022-09-17T07:15:34;12.50;99.90
21312;DHT22;18076;52.154;10.570;2022-09-17T07:17:59;12.70;99.90
21312;DHT22;18076;52.154;10.570;2022-09-17T07:20:31;12.80;99.90
21312;DHT22;18076;52.154;10.570;2022-09-17T07:22:57;12.80;99.90
21312;DHT22;18076;52.154;10.570;2022-09-17T07:25:25;12.90;99.90
21312;DHT22;18076;52.154;10.570;2022-09-17T07:27:51;12.80;99.90
21312;DHT22;18076;52.154;10.570;2022-09-17T07:30:17;12.90;99.90
21312;DHT22;18076;52.154;10.570;2022-09-17T07:32:42;12.90;99.90
21312;DHT22;18076;52.154;10.570;2022-09-17T07:35:08;12.80;99.90
21312;DHT22;18076;52.154;10.570;2022-09-17T07:37:33;12.80;99.90
21312;DHT22;18076;52.154;10.570;2022-09-17T07:39:59;13.40;99.90
21312;DHT22;18076;52.154;10.570;2022-09-17T07:42:25;13.70;99.90
21312;DHT22;18076;52.154;10.570;2022-09-17T07:44:51;13.80;99.90
21312;DHT22;18076;52.154;10.570;2022-09-17T07:47:17;14.20;99.90
21312;DHT22;18076;52.154;10.570;2022-09-17T07:49:43;14.20;99.90
21312;DHT22;18076;52.154;10.570;2022-09-17T07:52:08;13.90;99.90
21312;DHT22;18076;52.154;10.570;2022-09-17T07:54:34;14.20;99.90
21312;DHT22;18076;52.154;10.570;2022-09-17T07:57:03;14.60;99.90
21312;DHT22;18076;52.154;10.570;2022-09-17T07:59:29;15.00;99.90
21312;DHT22;18076;52.154;10.570;2022-09-17T08:01:54;15.60;99.90
21312;DHT22;18076;52.154;10.570;2022-09-17T08:04:20;15.70;99.90
21312;DHT22;18076;52.154;10.570;2022-09-17T08:06:46;15.90;99.90
21312;DHT22;18076;52.154;10.570;2022-09-17T08:09:15;15.90;99.90
21312;DHT22;18076;52.154;10.570;2022-09-17T08:11:41;16.10;99.90
21312;DHT22;18076;52.154;10.570;2022-09-17T08:14:10;16.40;99.90
21312;DHT22;18076;52.154;10.570;2022-09-17T08:16:37;16.90;99.90
21312;DHT22;18076;52.154;10.570;2022-09-17T08:19:03;17.20;99.90
21312;DHT22;18076;52.154;10.570;2022-09-17T08:21:28;17.10;99.90
21312;DHT22;18076;52.154;10.570;2022-09-17T08:23:54;17.10;99.90
21312;DHT22;18076;52.154;10.570;2022-09-17T08:26:20;16.80;99.90
21312;DHT22;18076;52.154;10.570;2022-09-17T08:28:48;16.70;99.90
21312;DHT22;18076;52.154;10.570;2022-09-17T08:31:14;16.70;99.90
21312;DHT22;18076;52.154;10.570;2022-09-17T08:33:40;16.70;99.90
21312;DHT22;18076;52.154;10.570;2022-09-17T08:36:07;16.60;99.90
21312;DHT22;18076;52.154;10.570;2022-09-17T08:38:35;16.80;99.90
21312;DHT22;18076;52.154;10.570;2022-09-17T08:43:29;16.80;99.90
21312;DHT22;18076;52.154;10.570;2022-09-17T08:45:55;16.20;99.90
21312;DHT22;18076;52.154;10.570;2022-09-17T08:48:22;16.20;99.90
21312;DHT22;18076;52.154;10.570;2022-09-17T08:50:50;16.30;99.90
21312;DHT22;18076;52.154;10.570;2022-09-17T08:53:29;16.20;99.90
21312;DHT22;18076;52.154;10.570;2022-09-17T08:56:01;15.70;99.90
21312;DHT22;18076;52.154;10.570;2022-09-17T08:58:41;15.40;99.90
21312;DHT22;18076;52.154;10.570;2022-09-17T09:04:07;15.80;99.90
21312;DHT22;18076;52.154;10.570;2022-09-17T09:07:11;16.40;99.90
21312;DHT22;18076;52.154;10.570;2022-09-17T09:09:30;16.70;99.90
21312;DHT22;18076;52.154;10.570;2022-09-17T09:12:01;17.10;99.90
21312;DHT22;18076;52.154;10.570;2022-09-17T09:14:31;17.20;99.90
21312;DHT22;18076;52.154;10.570;2022-09-17T09:17:00;17.40;99.90
21312;DHT22;18076;52.154;10.570;2022-09-17T09:19:30;17.40;99.90
21312;DHT22;18076;52.154;10.570;2022-09-17T09:22:00;17.40;99.90
21312;DHT22;18076;52.154;10.570;2022-09-17T09:25:10;17.20;99.90
21312;DHT22;18076;52.154;10.570;2022-09-17T09:27:17;16.80;99.90
21312;DHT22;18076;52.154;10.570;2022-09-17T09:32:15;17.50;99.90
21312;DHT22;18076;52.154;10.570;2022-09-17T09:34:43;17.90;99.90
21312;DHT22;18076;52.154;10.570;2022-09-17T09:37:26;17.80;99.90
21312;DHT22;18076;52.154;10.570;2022-09-17T09:39:54;17.80;99.90
21312;DHT22;18076;52.154;10.570;2022-09-17T09:44:58;17.60;99.90
21312;DHT22;18076;52.154;10.570;2022-09-17T09:47:38;17.70;99.90
21312;DHT22;18076;52.154;10.570;2022-09-17T10:00:30;17.10;99.90
21312;DHT22;18076;52.154;10.570;2022-09-17T10:05:50;17.20;99.90
21312;DHT22;18076;52.154;10.570;2022-09-17T10:08:16;17.10;99.90
21312;DHT22;18076;52.154;10.570;2022-09-17T10:11:01;17.00;99.90
21312;DHT22;18076;52.154;10.570;2022-09-17T10:13:28;16.90;99.90
21312;DHT22;18076;52.154;10.570;2022-09-17T10:15:54;16.80;99.90
21312;DHT22;18076;52.154;10.570;2022-09-17T10:18:23;16.60;99.90
21312;DHT22;18076;52.154;10.570;2022-09-17T10:23:15;16.70;99.90
21312;DHT22;18076;52.154;10.570;2022-09-17T10:25:41;16.70;99.90
21312;DHT22;18076;52.154;10.570;2022-09-17T10:28:20;16.70;99.90
21312;DHT22;18076;52.154;10.570;2022-09-17T10:30:55;17.00;99.90
21312;DHT22;18076;52.154;10.570;2022-09-17T10:33:22;17.20;99.90
21312;DHT22;18076;52.154;10.570;2022-09-17T10:35:53;17.00;99.90
21312;DHT22;18076;52.154;10.570;2022-09-17T10:38:26;17.40;99.90
21312;DHT22;18076;52.154;10.570;2022-09-17T10:40:52;17.80;99.90
21312;DHT22;18076;52.154;10.570;2022-09-17T10:43:21;18.40;99.90
21312;DHT22;18076;52.154;10.570;2022-09-17T10:45:57;18.30;99.90
21312;DHT22;18076;52.154;10.570;2022-09-17T10:48:23;18.40;99.90
21312;DHT22;18076;52.154;10.570;2022-09-17T10:50:51;18.10;99.90
21312;DHT22;18076;52.154;10.570;2022-09-17T10:53:17;17.40;99.90
21312;DHT22;18076;52.154;10.570;2022-09-17T10:55:49;17.10;99.90
21312;DHT22;18076;52.154;10.570;2022-09-17T11:08:48;17.00;99.90
21312;DHT22;18076;52.154;10.570;2022-09-17T11:14:05;17.70;99.90
21312;DHT22;18076;52.154;10.570;2022-09-17T11:16:50;17.60;99.90
21312;DHT22;18076;52.154;10.570;2022-09-17T11:27:03;16.70;99.90
21312;DHT22;18076;52.154;10.570;2022-09-17T11:32:09;16.80;99.90
21312;DHT22;18076;52.154;10.570;2022-09-17T11:39:48;16.70;99.90
21312;DHT22;18076;52.154;10.570;2022-09-17T11:42:17;16.70;99.90
21312;DHT22;18076;52.154;10.570;2022-09-17T11:44:46;17.20;99.90
21312;DHT22;18076;52.154;10.570;2022-09-17T11:47:19;17.70;99.10
21312;DHT22;18076;52.154;10.570;2022-09-17T11:49:49;18.00;98.50
21312;DHT22;18076;52.154;10.570;2022-09-17T11:52:23;18.30;99.20
21312;DHT22;18076;52.154;10.570;2022-09-17T11:57:58;18.50;98.90
21312;DHT22;18076;52.154;10.570;2022-09-17T12:00:24;18.60;99.70
21312;DHT22;18076;52.154;10.570;2022-09-17T12:05:39;18.70;97.40
21312;DHT22;18076;52.154;10.570;2022-09-17T12:10:41;18.20;95.50
21312;DHT22;18076;52.154;10.570;2022-09-17T12:15:48;17.60;96.60
21312;DHT22;18076;52.154;10.570;2022-09-17T12:18:23;17.10;96.70
21312;DHT22;18076;52.154;10.570;2022-09-17T12:20:53;16.90;97.50
21312;DHT22;18076;52.154;10.570;2022-09-17T12:28:49;16.10;99.30
21312;DHT22;18076;52.154;10.570;2022-09-17T12:31:19;15.80;99.90
21312;DHT22;18076;52.154;10.570;2022-09-17T12:33:51;15.80;99.90
21312;DHT22;18076;52.154;10.570;2022-09-17T12:36:25;16.10;99.90
21312;DHT22;18076;52.154;10.570;2022-09-17T12:52:00;14.50;99.90
21312;DHT22;18076;52.154;10.570;2022-09-17T13:00:25;15.10;99.90
21312;DHT22;18076;52.154;10.570;2022-09-17T13:02:33;15.10;99.90
21312;DHT22;18076;52.154;10.570;2022-09-17T13:10:02;14.70;99.90
21312;DHT22;18076;52.154;10.570;2022-09-17T13:12:39;14.50;99.90
21312;DHT22;18076;52.154;10.570;2022-09-17T13:15:21;14.30;99.90
21312;DHT22;18076;52.154;10.570;2022-09-17T13:18:33;14.10;99.90
21312;DHT22;18076;52.154;10.570;2022-09-17T13:20:37;14.20;99.90
21312;DHT22;18076;52.154;10.570;2022-09-17T13:23:04;14.00;99.90
21312;DHT22;18076;52.154;10.570;2022-09-17T13:25:30;13.80;99.90
21312;DHT22;18076;52.154;10.570;2022-09-17T13:28:03;13.70;99.90
21312;DHT22;18076;52.154;10.570;2022-09-17T13:30:53;13.70;99.90
21312;DHT22;18076;52.154;10.570;2022-09-17T13:33:47;13.60;99.90
21312;DHT22;18076;52.154;10.570;2022-09-17T13:36:02;13.40;99.90
21312;DHT22;18076;52.154;10.570;2022-09-17T13:38:31;13.20;99.90
21312;DHT22;18076;52.154;10.570;2022-09-17T13:41:17;12.90;99.90
21312;DHT22;18076;52.154;10.570;2022-09-17T13:43:44;12.80;99.90
21312;DHT22;18076;52.154;10.570;2022-09-17T13:46:12;12.70;99.90
21312;DHT22;18076;52.154;10.570;2022-09-17T13:48:42;12.50;99.90
21312;DHT22;18076;52.154;10.570;2022-09-17T13:53:53;12.00;99.90
21312;DHT22;18076;52.154;10.570;2022-09-17T13:59:22;12.00;99.90
21312;DHT22;18076;52.154;10.570;2022-09-17T14:01:56;12.00;99.90
21312;DHT22;18076;52.154;10.570;2022-09-17T14:09:56;12.00;99.90
21312;DHT22;18076;52.154;10.570;2022-09-17T14:13:16;11.90;99.90
21312;DHT22;18076;52.154;10.570;2022-09-17T14:17:55;11.90;99.90
21312;DHT22;18076;52.154;10.570;2022-09-17T14:20:21;11.90;99.90
21312;DHT22;18076;52.154;10.570;2022-09-17T14:22:57;11.90;99.90
21312;DHT22;18076;52.154;10.570;2022-09-17T14:25:45;12.00;99.90
21312;DHT22;18076;52.154;10.570;2022-09-17T14:31:01;11.90;99.90
21312;DHT22;18076;52.154;10.570;2022-09-17T14:33:27;11.80;99.90
21312;DHT22;18076;52.154;10.570;2022-09-17T14:36:00;11.80;99.90
21312;DHT22;18076;52.154;10.570;2022-09-17T14:38:33;11.60;99.90
21312;DHT22;18076;52.154;10.570;2022-09-17T14:46:17;11.30;99.90
21312;DHT22;18076;52.154;10.570;2022-09-17T14:48:43;11.20;99.90
21312;DHT22;18076;52.154;10.570;2022-09-17T14:51:21;11.20;99.90
21312;DHT22;18076;52.154;10.570;2022-09-17T14:53:49;11.30;99.90
21312;DHT22;18076;52.154;10.570;2022-09-17T14:56:31;11.30;99.90
21312;DHT22;18076;52.154;10.570;2022-09-17T14:58:57;11.30;99.90
21312;DHT22;18076;52.154;10.570;2022-09-17T15:01:27;11.20;99.90
21312;DHT22;18076;52.154;10.570;2022-09-17T15:06:36;11.20;99.90
21312;DHT22;18076;52.154;10.570;2022-09-17T15:09:02;11.20;99.90
21312;DHT22;18076;52.154;10.570;2022-09-17T15:11:28;11.20;99.90
21312;DHT22;18076;52.154;10.570;2022-09-17T15:13:54;11.20;99.90
21312;DHT22;18076;52.154;10.570;2022-09-17T15:16:23;11.20;99.90
21312;DHT22;18076;52.154;10.570;2022-09-17T15:19:02;11.20;99.90
21312;DHT22;18076;52.154;10.570;2022-09-17T15:23:57;11.30;99.90
21312;DHT22;18076;52.154;10.570;2022-09-17T15:26:25;11.30;99.90
21312;DHT22;18076;52.154;10.570;2022-09-17T15:28:53;11.30;99.90
21312;DHT22;18076;52.154;10.570;2022-09-17T15:31:20;11.40;99.90
21312;DHT22;18076;52.154;10.570;2022-09-17T15:33:46;11.40;99.90
21312;DHT22;18076;52.154;10.570;2022-09-17T15:38:37;11.40;99.90
21312;DHT22;18076;52.154;10.570;2022-09-17T15:43:45;11.30;99.90
21312;DHT22;18076;52.154;10.570;2022-09-17T15:46:29;11.30;99.90
21312;DHT22;18076;52.154;10.570;2022-09-17T15:48:59;11.30;99.90
21312;DHT22;18076;52.154;10.570;2022-09-17T15:51:26;11.30;99.90
21312;DHT22;18076;52.154;10.570;2022-09-17T15:53:53;11.30;99.90
21312;DHT22;18076;52.154;10.570;2022-09-17T15:56:20;11.30;99.90
21312;DHT22;18076;52.154;10.570;2022-09-17T16:08:42;11.30;99.90
21312;DHT22;18076;52.154;10.570;2022-09-17T16:11:08;11.30;99.90
21312;DHT22;18076;52.154;10.570;2022-09-17T16:13:33;11.30;99.90
21312;DHT22;18076;52.154;10.570;2022-09-17T16:15:59;11.20;99.90
21312;DHT22;18076;52.154;10.570;2022-09-17T16:18:25;11.20;99.90
21312;DHT22;18076;52.154;10.570;2022-09-17T16:20:53;11.20;99.90
21312;DHT22;18076;52.154;10.570;2022-09-17T16:23:18;11.20;99.90
21312;DHT22;18076;52.154;10.570;2022-09-17T16:25:44;11.10;99.90
21312;DHT22;18076;52.154;10.570;2022-09-17T16:28:13;11.10;99.90
21312;DHT22;18076;52.154;10.570;2022-09-17T16:30:42;11.00;99.90
21312;DHT22;18076;52.154;10.570;2022-09-17T16:33:12;11.00;99.90
21312;DHT22;18076;52.154;10.570;2022-09-17T16:35:38;11.00;99.90
21312;DHT22;18076;52.154;10.570;2022-09-17T16:38:04;11.00;99.90
21312;DHT22;18076;52.154;10.570;2022-09-17T16:40:29;11.00;99.90
21312;DHT22;18076;52.154;10.570;2022-09-17T16:42:58;10.90;99.90
21312;DHT22;18076;52.154;10.570;2022-09-17T16:45:23;10.90;99.90
21312;DHT22;18076;52.154;10.570;2022-09-17T16:47:49;10.90;99.90
21312;DHT22;18076;52.154;10.570;2022-09-17T16:50:15;10.90;99.90
21312;DHT22;18076;52.154;10.570;2022-09-17T16:52:41;10.90;99.90
21312;DHT22;18076;52.154;10.570;2022-09-17T16:55:07;10.90;99.90
21312;DHT22;18076;52.154;10.570;2022-09-17T16:57:33;10.90;99.90
21312;DHT22;18076;52.154;10.570;2022-09-17T16:59:58;10.90;99.90
21312;DHT22;18076;52.154;10.570;2022-09-17T17:02:24;10.90;99.90
21312;DHT22;18076;52.154;10.570;2022-09-17T17:04:50;10.90;99.90
21312;DHT22;18076;52.154;10.570;2022-09-17T17:07:15;10.90;99.90
21312;DHT22;18076;52.154;10.570;2022-09-17T17:09:41;10.90;99.90
21312;DHT22;18076;52.154;10.570;2022-09-17T17:12:07;10.90;99.90
21312;DHT22;18076;52.154;10.570;2022-09-17T17:14:32;10.90;99.90
21312;DHT22;18076;52.154;10.570;2022-09-17T17:16:58;10.90;99.90
21312;DHT22;18076;52.154;10.570;2022-09-17T17:19:24;10.90;99.90
21312;DHT22;18076;52.154;10.570;2022-09-17T17:21:50;10.90;99.90
21312;DHT22;18076;52.154;10.570;2022-09-17T17:24:16;10.90;99.90
21312;DHT22;18076;52.154;10.570;2022-09-17T17:26:41;10.80;99.90
21312;DHT22;18076;52.154;10.570;2022-09-17T17:29:07;10.90;99.90
21312;DHT22;18076;52.154;10.570;2022-09-17T17:31:33;10.80;99.90
21312;DHT22;18076;52.154;10.570;2022-09-17T17:33:59;10.90;99.90
21312;DHT22;18076;52.154;10.570;2022-09-17T17:36:24;10.80;99.90
21312;DHT22;18076;52.154;10.570;2022-09-17T17:38:54;10.80;99.90
21312;DHT22;18076;52.154;10.570;2022-09-17T17:41:19;10.80;99.90
21312;DHT22;18076;52.154;10.570;2022-09-17T17:43:47;10.80;99.90
21312;DHT22;18076;52.154;10.570;2022-09-17T17:46:12;10.80;99.90
21312;DHT22;18076;52.154;10.570;2022-09-17T17:48:39;10.80;99.90
21312;DHT22;18076;52.154;10.570;2022-09-17T17:51:06;10.80;99.90
21312;DHT22;18076;52.154;10.570;2022-09-17T17:53:31;10.80;99.90
21312;DHT22;18076;52.154;10.570;2022-09-17T17:55:58;10.80;99.90
21312;DHT22;18076;52.154;10.570;2022-09-17T17:58:24;10.80;99.90
21312;DHT22;18076;52.154;10.570;2022-09-17T18:00:49;10.80;99.90
21312;DHT22;18076;52.154;10.570;2022-09-17T18:03:15;10.80;99.90
21312;DHT22;18076;52.154;10.570;2022-09-17T18:05:40;10.80;99.90
21312;DHT22;18076;52.154;10.570;2022-09-17T18:08:06;10.80;99.90
21312;DHT22;18076;52.154;10.570;2022-09-17T18:10:31;10.80;99.90
21312;DHT22;18076;52.154;10.570;2022-09-17T18:12:57;10.80;99.90
21312;DHT22;18076;52.154;10.570;2022-09-17T18:15:22;10.80;99.90
21312;DHT22;18076;52.154;10.570;2022-09-17T18:17:48;10.70;99.90
21312;DHT22;18076;52.154;10.570;2022-09-17T18:20:15;10.70;99.90
21312;DHT22;18076;52.154;10.570;2022-09-17T18:22:42;10.70;99.90
21312;DHT22;18076;52.154;10.570;2022-09-17T18:25:08;10.60;99.90